sensor_id;sensor_type;location;lat;lon;timestamp;P1;durP1;ratioP1;P2;durP2;ratioP2
51384;SDS011;37478;55.682;37.462;2023-05-07T00:00:45;10.40;;;4.63;;
51384;SDS011;37478;55.682;37.462;2023-05-07T00:03:11;11.00;;;5.30;;
51384;SDS011;37478;55.682;37.462;2023-05-07T00:05:36;13.90;;;6.35;;
51384;SDS011;37478;55.682;37.462;2023-05-07T00:08:02;12.77;;;6.07;;
51384;SDS011;37478;55.682;37.462;2023-05-07T00:10:28;11.00;;;5.45;;
51384;SDS011;37478;55.682;37.462;2023-05-07T00:12:53;13.38;;;5.68;;
51384;SDS011;37478;55.682;37.462;2023-05-07T00:15:18;11.35;;;5.30;;
51384;SDS011;37478;55.682;37.462;2023-05-07T00:17:44;7.90;;;4.45;;
51384;SDS011;37478;55.682;37.462;2023-05-07T00:20:09;7.97;;;4.68;;
51384;SDS011;37478;55.682;37.462;2023-05-07T00:22:34;10.13;;;5.25;;
51384;SDS011;37478;55.682;37.462;2023-05-07T00:25:00;9.43;;;5.43;;
51384;SDS011;37478;55.682;37.462;2023-05-07T00:27:25;16.98;;;5.85;;
51384;SDS011;37478;55.682;37.462;2023-05-07T00:29:50;8.50;;;4.80;;
51384;SDS011;37478;55.682;37.462;2023-05-07T00:32:16;9.65;;;5.35;;
51384;SDS011;37478;55.682;37.462;2023-05-07T00:34:41;6.13;;;4.35;;
51384;SDS011;37478;55.682;37.462;2023-05-07T00:37:06;6.82;;;4.70;;
51384;SDS011;37478;55.682;37.462;2023-05-07T00:39:35;8.52;;;4.78;;
51384;SDS011;37478;55.682;37.462;2023-05-07T00:42:00;7.43;;;4.30;;
51384;SDS011;37478;55.682;37.462;2023-05-07T00:44:26;11.55;;;4.90;;
51384;SDS011;37478;55.682;37.462;2023-05-07T00:46:51;10.80;;;6.07;;
51384;SDS011;37478;55.682;37.462;2023-05-07T00:49:17;11.98;;;6.00;;
51384;SDS011;37478;55.682;37.462;2023-05-07T00:51:43;10.35;;;5.55;;
51384;SDS011;37478;55.682;37.462;2023-05-07T00:54:09;8.02;;;5.32;;
51384;SDS011;37478;55.682;37.462;2023-05-07T00:56:34;11.98;;;6.07;;
51384;SDS011;37478;55.682;37.462;2023-05-07T00:59:00;15.88;;;7.15;;
51384;SDS011;37478;55.682;37.462;2023-05-07T01:01:26;13.57;;;7.13;;
51384;SDS011;37478;55.682;37.462;2023-05-07T01:03:51;15.45;;;6.40;;
51384;SDS011;37478;55.682;37.462;2023-05-07T01:06:17;10.60;;;5.43;;
51384;SDS011;37478;55.682;37.462;2023-05-07T01:08:42;22.13;;;6.85;;
51384;SDS011;37478;55.682;37.462;2023-05-07T01:11:08;11.43;;;4.95;;
51384;SDS011;37478;55.682;37.462;2023-05-07T01:13:34;14.48;;;5.65;;
51384;SDS011;37478;55.682;37.462;2023-05-07T01:16:00;10.13;;;5.30;;
51384;SDS011;37478;55.682;37.462;2023-05-07T01:18:25;11.02;;;5.90;;
51384;SDS011;37478;55.682;37.462;2023-05-07T01:20:51;8.68;;;5.20;;
51384;SDS011;37478;55.682;37.462;2023-05-07T01:23:17;9.95;;;5.70;;
51384;SDS011;37478;55.682;37.462;2023-05-07T01:25:43;12.60;;;7.78;;
51384;SDS011;37478;55.682;37.462;2023-05-07T01:28:08;8.38;;;5.72;;
51384;SDS011;37478;55.682;37.462;2023-05-07T01:30:33;13.55;;;6.50;;
51384;SDS011;37478;55.682;37.462;2023-05-07T01:33:01;13.55;;;6.40;;
51384;SDS011;37478;55.682;37.462;2023-05-07T01:35:30;9.98;;;5.45;;
51384;SDS011;37478;55.682;37.462;2023-05-07T01:37:57;13.00;;;5.35;;
51384;SDS011;37478;55.682;37.462;2023-05-07T01:40:23;9.43;;;6.07;;
51384;SDS011;37478;55.682;37.462;2023-05-07T01:42:49;14.27;;;9.18;;
51384;SDS011;37478;55.682;37.462;2023-05-07T01:45:15;10.48;;;5.72;;
51384;SDS011;37478;55.682;37.462;2023-05-07T01:47:40;9.63;;;4.80;;
51384;SDS011;37478;55.682;37.462;2023-05-07T01:50:06;8.60;;;4.60;;
51384;SDS011;37478;55.682;37.462;2023-05-07T01:52:33;7.57;;;3.88;;
51384;SDS011;37478;55.682;37.462;2023-05-07T01:54:59;6.72;;;4.15;;
51384;SDS011;37478;55.682;37.462;2023-05-07T01:57:24;8.57;;;4.07;;
51384;SDS011;37478;55.682;37.462;2023-05-07T01:59:50;7.80;;;4.32;;
51384;SDS011;37478;55.682;37.462;2023-05-07T02:02:15;9.05;;;4.90;;
51384;SDS011;37478;55.682;37.462;2023-05-07T02:04:40;9.43;;;4.68;;
51384;SDS011;37478;55.682;37.462;2023-05-07T02:07:06;11.00;;;5.03;;
51384;SDS011;37478;55.682;37.462;2023-05-07T02:09:31;10.10;;;4.47;;
51384;SDS011;37478;55.682;37.462;2023-05-07T02:11:56;6.63;;;4.32;;
51384;SDS011;37478;55.682;37.462;2023-05-07T02:14:22;7.35;;;4.07;;
51384;SDS011;37478;55.682;37.462;2023-05-07T02:16:47;8.23;;;3.95;;
51384;SDS011;37478;55.682;37.462;2023-05-07T02:19:12;6.82;;;4.50;;
51384;SDS011;37478;55.682;37.462;2023-05-07T02:21:37;7.55;;;4.35;;
51384;SDS011;37478;55.682;37.462;2023-05-07T02:24:03;6.65;;;3.97;;
51384;SDS011;37478;55.682;37.462;2023-05-07T02:26:28;9.65;;;3.75;;
51384;SDS011;37478;55.682;37.462;2023-05-07T02:28:53;10.30;;;4.40;;
51384;SDS011;37478;55.682;37.462;2023-05-07T02:31:19;9.07;;;4.38;;
51384;SDS011;37478;55.682;37.462;2023-05-07T02:33:44;6.60;;;3.97;;
51384;SDS011;37478;55.682;37.462;2023-05-07T02:36:10;6.13;;;3.60;;
51384;SDS011;37478;55.682;37.462;2023-05-07T02:38:36;10.85;;;5.55;;
51384;SDS011;37478;55.682;37.462;2023-05-07T02:41:01;11.43;;;4.35;;
51384;SDS011;37478;55.682;37.462;2023-05-07T02:43:26;9.45;;;4.13;;
51384;SDS011;37478;55.682;37.462;2023-05-07T02:46:05;8.98;;;4.43;;
51384;SDS011;37478;55.682;37.462;2023-05-07T02:48:31;6.63;;;4.22;;
51384;SDS011;37478;55.682;37.462;2023-05-07T02:50:56;8.60;;;3.65;;
51384;SDS011;37478;55.682;37.462;2023-05-07T02:53:22;7.10;;;4.00;;
51384;SDS011;37478;55.682;37.462;2023-05-07T02:55:47;6.70;;;4.15;;
51384;SDS011;37478;55.682;37.462;2023-05-07T02:58:12;6.93;;;4.43;;
51384;SDS011;37478;55.682;37.462;2023-05-07T03:00:38;9.57;;;4.63;;
51384;SDS011;37478;55.682;37.462;2023-05-07T03:03:03;10.05;;;4.10;;
51384;SDS011;37478;55.682;37.462;2023-05-07T03:05:28;7.80;;;4.18;;
51384;SDS011;37478;55.682;37.462;2023-05-07T03:07:54;6.65;;;4.22;;
51384;SDS011;37478;55.682;37.462;2023-05-07T03:10:19;6.95;;;4.15;;
51384;SDS011;37478;55.682;37.462;2023-05-07T03:12:44;8.30;;;4.28;;
51384;SDS011;37478;55.682;37.462;2023-05-07T03:15:09;5.03;;;3.10;;
51384;SDS011;37478;55.682;37.462;2023-05-07T03:17:36;8.68;;;4.32;;
51384;SDS011;37478;55.682;37.462;2023-05-07T03:20:01;8.30;;;4.18;;
51384;SDS011;37478;55.682;37.462;2023-05-07T03:22:27;10.43;;;3.88;;
51384;SDS011;37478;55.682;37.462;2023-05-07T03:24:52;11.77;;;4.47;;
51384;SDS011;37478;55.682;37.462;2023-05-07T03:27:17;7.57;;;4.65;;
51384;SDS011;37478;55.682;37.462;2023-05-07T03:29:43;8.32;;;4.00;;
51384;SDS011;37478;55.682;37.462;2023-05-07T03:32:08;10.00;;;4.45;;
51384;SDS011;37478;55.682;37.462;2023-05-07T03:34:33;7.38;;;4.63;;
51384;SDS011;37478;55.682;37.462;2023-05-07T03:36:59;9.48;;;5.22;;
51384;SDS011;37478;55.682;37.462;2023-05-07T03:39:24;11.38;;;4.13;;
51384;SDS011;37478;55.682;37.462;2023-05-07T03:41:49;10.02;;;4.65;;
51384;SDS011;37478;55.682;37.462;2023-05-07T03:44:15;7.88;;;4.63;;
51384;SDS011;37478;55.682;37.462;2023-05-07T03:46:40;10.27;;;5.43;;
51384;SDS011;37478;55.682;37.462;2023-05-07T03:49:05;7.88;;;4.82;;
51384;SDS011;37478;55.682;37.462;2023-05-07T03:51:31;10.07;;;5.45;;
51384;SDS011;37478;55.682;37.462;2023-05-07T03:53:56;10.77;;;5.55;;
51384;SDS011;37478;55.682;37.462;2023-05-07T03:56:22;7.88;;;4.45;;
51384;SDS011;37478;55.682;37.462;2023-05-07T03:58:48;8.35;;;4.50;;
51384;SDS011;37478;55.682;37.462;2023-05-07T04:01:13;6.82;;;4.13;;
51384;SDS011;37478;55.682;37.462;2023-05-07T04:03:38;7.97;;;5.10;;
51384;SDS011;37478;55.682;37.462;2023-05-07T04:06:04;9.45;;;5.18;;
51384;SDS011;37478;55.682;37.462;2023-05-07T04:08:29;8.07;;;4.55;;
51384;SDS011;37478;55.682;37.462;2023-05-07T04:10:55;7.78;;;4.22;;
51384;SDS011;37478;55.682;37.462;2023-05-07T04:13:20;8.80;;;4.35;;
51384;SDS011;37478;55.682;37.462;2023-05-07T04:15:45;9.80;;;5.13;;
51384;SDS011;37478;55.682;37.462;2023-05-07T04:18:11;8.20;;;4.78;;
51384;SDS011;37478;55.682;37.462;2023-05-07T04:20:36;9.30;;;4.25;;
51384;SDS011;37478;55.682;37.462;2023-05-07T04:23:02;11.00;;;4.57;;
51384;SDS011;37478;55.682;37.462;2023-05-07T04:25:27;6.25;;;3.67;;
51384;SDS011;37478;55.682;37.462;2023-05-07T04:27:52;8.95;;;4.05;;
51384;SDS011;37478;55.682;37.462;2023-05-07T04:30:18;8.32;;;3.83;;
51384;SDS011;37478;55.682;37.462;2023-05-07T04:32:43;4.85;;;3.50;;
51384;SDS011;37478;55.682;37.462;2023-05-07T04:35:09;5.93;;;3.70;;
51384;SDS011;37478;55.682;37.462;2023-05-07T04:37:34;6.70;;;3.78;;
51384;SDS011;37478;55.682;37.462;2023-05-07T04:40:00;9.48;;;4.07;;
51384;SDS011;37478;55.682;37.462;2023-05-07T04:42:26;7.28;;;3.88;;
51384;SDS011;37478;55.682;37.462;2023-05-07T04:44:52;8.23;;;3.75;;
51384;SDS011;37478;55.682;37.462;2023-05-07T04:47:18;6.18;;;3.72;;
51384;SDS011;37478;55.682;37.462;2023-05-07T04:49:43;7.53;;;3.22;;
51384;SDS011;37478;55.682;37.462;2023-05-07T04:52:08;5.28;;;3.63;;
51384;SDS011;37478;55.682;37.462;2023-05-07T04:54:34;6.95;;;3.40;;
51384;SDS011;37478;55.682;37.462;2023-05-07T04:57:00;6.97;;;3.90;;
51384;SDS011;37478;55.682;37.462;2023-05-07T04:59:25;6.65;;;4.25;;
51384;SDS011;37478;55.682;37.462;2023-05-07T05:01:50;11.60;;;4.57;;
51384;SDS011;37478;55.682;37.462;2023-05-07T05:04:16;7.32;;;3.65;;
51384;SDS011;37478;55.682;37.462;2023-05-07T05:06:41;5.30;;;2.92;;
51384;SDS011;37478;55.682;37.462;2023-05-07T05:09:06;5.95;;;3.40;;
51384;SDS011;37478;55.682;37.462;2023-05-07T05:11:32;4.32;;;2.50;;
51384;SDS011;37478;55.682;37.462;2023-05-07T05:13:58;4.07;;;2.50;;
51384;SDS011;37478;55.682;37.462;2023-05-07T05:16:24;7.13;;;3.15;;
51384;SDS011;37478;55.682;37.462;2023-05-07T05:18:49;6.47;;;2.88;;
51384;SDS011;37478;55.682;37.462;2023-05-07T05:21:14;4.28;;;2.80;;
51384;SDS011;37478;55.682;37.462;2023-05-07T05:23:39;7.00;;;3.47;;
51384;SDS011;37478;55.682;37.462;2023-05-07T05:26:05;4.35;;;2.45;;
51384;SDS011;37478;55.682;37.462;2023-05-07T05:28:30;4.30;;;2.78;;
51384;SDS011;37478;55.682;37.462;2023-05-07T05:30:55;4.32;;;2.83;;
51384;SDS011;37478;55.682;37.462;2023-05-07T05:33:21;5.10;;;2.50;;
51384;SDS011;37478;55.682;37.462;2023-05-07T05:35:46;3.60;;;2.53;;
51384;SDS011;37478;55.682;37.462;2023-05-07T05:38:11;4.50;;;2.17;;
51384;SDS011;37478;55.682;37.462;2023-05-07T05:40:37;4.55;;;2.97;;
51384;SDS011;37478;55.682;37.462;2023-05-07T05:43:02;2.67;;;1.98;;
51384;SDS011;37478;55.682;37.462;2023-05-07T05:45:27;3.15;;;2.10;;
51384;SDS011;37478;55.682;37.462;2023-05-07T05:47:53;6.32;;;1.92;;
51384;SDS011;37478;55.682;37.462;2023-05-07T05:50:18;3.95;;;2.50;;
51384;SDS011;37478;55.682;37.462;2023-05-07T05:52:43;3.42;;;2.08;;
51384;SDS011;37478;55.682;37.462;2023-05-07T05:55:09;3.10;;;2.15;;
51384;SDS011;37478;55.682;37.462;2023-05-07T05:57:34;3.88;;;2.00;;
51384;SDS011;37478;55.682;37.462;2023-05-07T06:00:00;2.05;;;1.75;;
51384;SDS011;37478;55.682;37.462;2023-05-07T06:02:25;3.83;;;1.77;;
51384;SDS011;37478;55.682;37.462;2023-05-07T06:04:50;5.20;;;1.90;;
51384;SDS011;37478;55.682;37.462;2023-05-07T06:07:16;3.50;;;2.15;;
51384;SDS011;37478;55.682;37.462;2023-05-07T06:09:41;11.82;;;2.78;;
51384;SDS011;37478;55.682;37.462;2023-05-07T06:12:06;9.07;;;2.65;;
51384;SDS011;37478;55.682;37.462;2023-05-07T06:14:31;4.40;;;2.65;;
51384;SDS011;37478;55.682;37.462;2023-05-07T06:16:57;3.63;;;2.17;;
51384;SDS011;37478;55.682;37.462;2023-05-07T06:19:22;8.77;;;2.30;;
51384;SDS011;37478;55.682;37.462;2023-05-07T06:21:49;7.35;;;2.40;;
51384;SDS011;37478;55.682;37.462;2023-05-07T06:24:14;6.95;;;2.72;;
51384;SDS011;37478;55.682;37.462;2023-05-07T06:26:39;2.67;;;2.17;;
51384;SDS011;37478;55.682;37.462;2023-05-07T06:29:05;4.15;;;2.40;;
51384;SDS011;37478;55.682;37.462;2023-05-07T06:31:31;3.53;;;2.33;;
51384;SDS011;37478;55.682;37.462;2023-05-07T06:33:57;2.42;;;1.90;;
51384;SDS011;37478;55.682;37.462;2023-05-07T06:36:22;4.45;;;2.60;;
51384;SDS011;37478;55.682;37.462;2023-05-07T06:38:47;4.43;;;2.53;;
51384;SDS011;37478;55.682;37.462;2023-05-07T06:41:13;5.20;;;2.33;;
51384;SDS011;37478;55.682;37.462;2023-05-07T06:43:38;5.13;;;2.20;;
51384;SDS011;37478;55.682;37.462;2023-05-07T06:46:03;2.90;;;1.85;;
51384;SDS011;37478;55.682;37.462;2023-05-07T06:48:28;4.85;;;2.45;;
51384;SDS011;37478;55.682;37.462;2023-05-07T06:50:54;3.38;;;2.20;;
51384;SDS011;37478;55.682;37.462;2023-05-07T06:53:20;4.38;;;2.40;;
51384;SDS011;37478;55.682;37.462;2023-05-07T06:55:46;2.72;;;1.50;;
51384;SDS011;37478;55.682;37.462;2023-05-07T06:58:11;3.45;;;2.13;;
51384;SDS011;37478;55.682;37.462;2023-05-07T07:00:36;9.98;;;2.30;;
51384;SDS011;37478;55.682;37.462;2023-05-07T07:03:02;11.38;;;2.53;;
51384;SDS011;37478;55.682;37.462;2023-05-07T07:05:27;6.03;;;2.05;;
51384;SDS011;37478;55.682;37.462;2023-05-07T07:07:52;3.05;;;2.20;;
51384;SDS011;37478;55.682;37.462;2023-05-07T07:10:18;5.47;;;1.90;;
51384;SDS011;37478;55.682;37.462;2023-05-07T07:12:44;5.82;;;2.30;;
51384;SDS011;37478;55.682;37.462;2023-05-07T07:15:09;3.65;;;2.53;;
51384;SDS011;37478;55.682;37.462;2023-05-07T07:17:35;2.75;;;1.77;;
51384;SDS011;37478;55.682;37.462;2023-05-07T07:20:00;2.03;;;1.83;;
51384;SDS011;37478;55.682;37.462;2023-05-07T07:22:25;2.20;;;1.70;;
51384;SDS011;37478;55.682;37.462;2023-05-07T07:24:51;3.28;;;2.03;;
51384;SDS011;37478;55.682;37.462;2023-05-07T07:27:16;3.00;;;1.98;;
51384;SDS011;37478;55.682;37.462;2023-05-07T07:29:41;4.10;;;2.30;;
51384;SDS011;37478;55.682;37.462;2023-05-07T07:32:07;4.78;;;2.25;;
51384;SDS011;37478;55.682;37.462;2023-05-07T07:34:33;2.95;;;1.65;;
51384;SDS011;37478;55.682;37.462;2023-05-07T07:36:58;2.75;;;2.08;;
51384;SDS011;37478;55.682;37.462;2023-05-07T07:39:23;6.60;;;2.70;;
51384;SDS011;37478;55.682;37.462;2023-05-07T07:41:49;5.30;;;2.65;;
51384;SDS011;37478;55.682;37.462;2023-05-07T07:44:14;2.72;;;2.15;;
51384;SDS011;37478;55.682;37.462;2023-05-07T07:46:39;3.30;;;2.10;;
51384;SDS011;37478;55.682;37.462;2023-05-07T07:49:04;3.13;;;1.63;;
51384;SDS011;37478;55.682;37.462;2023-05-07T07:51:30;7.20;;;1.95;;
51384;SDS011;37478;55.682;37.462;2023-05-07T07:53:55;2.00;;;1.65;;
51384;SDS011;37478;55.682;37.462;2023-05-07T07:56:22;2.42;;;1.77;;
51384;SDS011;37478;55.682;37.462;2023-05-07T07:58:48;3.60;;;2.28;;
51384;SDS011;37478;55.682;37.462;2023-05-07T08:01:13;6.80;;;2.67;;
51384;SDS011;37478;55.682;37.462;2023-05-07T08:03:38;3.15;;;1.88;;
51384;SDS011;37478;55.682;37.462;2023-05-07T08:06:04;3.13;;;1.45;;
51384;SDS011;37478;55.682;37.462;2023-05-07T08:08:29;6.50;;;2.05;;
51384;SDS011;37478;55.682;37.462;2023-05-07T08:10:54;2.90;;;2.05;;
51384;SDS011;37478;55.682;37.462;2023-05-07T08:13:20;5.55;;;1.90;;
51384;SDS011;37478;55.682;37.462;2023-05-07T08:15:45;4.35;;;1.83;;
51384;SDS011;37478;55.682;37.462;2023-05-07T08:18:10;5.72;;;2.20;;
51384;SDS011;37478;55.682;37.462;2023-05-07T08:20:36;3.58;;;2.17;;
51384;SDS011;37478;55.682;37.462;2023-05-07T08:23:04;3.78;;;2.10;;
51384;SDS011;37478;55.682;37.462;2023-05-07T08:25:32;4.30;;;1.88;;
51384;SDS011;37478;55.682;37.462;2023-05-07T08:27:57;7.00;;;2.30;;
51384;SDS011;37478;55.682;37.462;2023-05-07T08:30:23;5.35;;;2.05;;
51384;SDS011;37478;55.682;37.462;2023-05-07T08:32:48;2.70;;;1.63;;
51384;SDS011;37478;55.682;37.462;2023-05-07T08:35:13;1.65;;;1.48;;
51384;SDS011;37478;55.682;37.462;2023-05-07T08:37:38;1.73;;;1.10;;
51384;SDS011;37478;55.682;37.462;2023-05-07T08:40:04;2.30;;;1.80;;
51384;SDS011;37478;55.682;37.462;2023-05-07T08:42:31;2.90;;;1.40;;
51384;SDS011;37478;55.682;37.462;2023-05-07T08:45:00;5.10;;;2.22;;
51384;SDS011;37478;55.682;37.462;2023-05-07T08:47:28;2.25;;;1.95;;
51384;SDS011;37478;55.682;37.462;2023-05-07T08:49:54;3.83;;;1.73;;
51384;SDS011;37478;55.682;37.462;2023-05-07T08:52:20;2.40;;;1.50;;
51384;SDS011;37478;55.682;37.462;2023-05-07T08:54:45;2.20;;;1.63;;
51384;SDS011;37478;55.682;37.462;2023-05-07T08:57:11;2.08;;;1.55;;
51384;SDS011;37478;55.682;37.462;2023-05-07T08:59:36;2.38;;;1.48;;
51384;SDS011;37478;55.682;37.462;2023-05-07T09:02:02;3.58;;;2.05;;
51384;SDS011;37478;55.682;37.462;2023-05-07T09:04:27;2.50;;;1.50;;
51384;SDS011;37478;55.682;37.462;2023-05-07T09:06:52;4.93;;;2.50;;
51384;SDS011;37478;55.682;37.462;2023-05-07T09:09:18;5.18;;;2.30;;
51384;SDS011;37478;55.682;37.462;2023-05-07T09:11:45;5.45;;;2.28;;
51384;SDS011;37478;55.682;37.462;2023-05-07T09:14:11;1.80;;;1.55;;
51384;SDS011;37478;55.682;37.462;2023-05-07T09:16:36;3.95;;;1.95;;
51384;SDS011;37478;55.682;37.462;2023-05-07T09:19:01;4.38;;;2.15;;
51384;SDS011;37478;55.682;37.462;2023-05-07T09:21:27;4.65;;;1.50;;
51384;SDS011;37478;55.682;37.462;2023-05-07T09:23:53;3.70;;;1.55;;
51384;SDS011;37478;55.682;37.462;2023-05-07T09:26:20;2.35;;;1.70;;
51384;SDS011;37478;55.682;37.462;2023-05-07T09:28:46;2.08;;;1.75;;
51384;SDS011;37478;55.682;37.462;2023-05-07T09:31:11;2.17;;;1.80;;
51384;SDS011;37478;55.682;37.462;2023-05-07T09:33:37;1.80;;;1.52;;
51384;SDS011;37478;55.682;37.462;2023-05-07T09:36:03;5.60;;;2.40;;
51384;SDS011;37478;55.682;37.462;2023-05-07T09:38:28;3.47;;;1.70;;
51384;SDS011;37478;55.682;37.462;2023-05-07T09:43:54;10.05;;;2.40;;
51384;SDS011;37478;55.682;37.462;2023-05-07T09:46:21;2.05;;;1.80;;
51384;SDS011;37478;55.682;37.462;2023-05-07T09:48:50;2.75;;;1.67;;
51384;SDS011;37478;55.682;37.462;2023-05-07T09:53:43;4.07;;;2.08;;
51384;SDS011;37478;55.682;37.462;2023-05-07T09:56:08;2.63;;;1.88;;
51384;SDS011;37478;55.682;37.462;2023-05-07T09:58:36;3.17;;;1.85;;
51384;SDS011;37478;55.682;37.462;2023-05-07T10:01:02;2.97;;;1.77;;
51384;SDS011;37478;55.682;37.462;2023-05-07T10:03:27;3.40;;;1.75;;
51384;SDS011;37478;55.682;37.462;2023-05-07T10:05:54;3.35;;;1.75;;
51384;SDS011;37478;55.682;37.462;2023-05-07T10:08:20;3.08;;;1.77;;
51384;SDS011;37478;55.682;37.462;2023-05-07T10:10:45;3.78;;;1.73;;
51384;SDS011;37478;55.682;37.462;2023-05-07T10:13:11;2.28;;;1.15;;
51384;SDS011;37478;55.682;37.462;2023-05-07T10:15:36;2.63;;;2.00;;
51384;SDS011;37478;55.682;37.462;2023-05-07T10:18:03;3.13;;;1.67;;
51384;SDS011;37478;55.682;37.462;2023-05-07T10:20:28;2.13;;;1.38;;
51384;SDS011;37478;55.682;37.462;2023-05-07T10:22:54;2.95;;;1.67;;
51384;SDS011;37478;55.682;37.462;2023-05-07T10:25:23;3.25;;;1.92;;
51384;SDS011;37478;55.682;37.462;2023-05-07T10:27:50;1.50;;;1.40;;
51384;SDS011;37478;55.682;37.462;2023-05-07T10:33:19;3.40;;;2.35;;
51384;SDS011;37478;55.682;37.462;2023-05-07T10:35:45;3.38;;;1.88;;
51384;SDS011;37478;55.682;37.462;2023-05-07T10:38:12;1.60;;;1.38;;
51384;SDS011;37478;55.682;37.462;2023-05-07T10:40:37;4.65;;;2.00;;
51384;SDS011;37478;55.682;37.462;2023-05-07T10:43:03;3.10;;;1.60;;
51384;SDS011;37478;55.682;37.462;2023-05-07T10:45:32;1.65;;;1.33;;
51384;SDS011;37478;55.682;37.462;2023-05-07T10:48:07;1.60;;;1.38;;
51384;SDS011;37478;55.682;37.462;2023-05-07T10:50:33;1.67;;;1.58;;
51384;SDS011;37478;55.682;37.462;2023-05-07T10:55:41;3.70;;;1.67;;
51384;SDS011;37478;55.682;37.462;2023-05-07T10:58:23;1.75;;;1.45;;
51384;SDS011;37478;55.682;37.462;2023-05-07T11:00:49;2.15;;;1.38;;
51384;SDS011;37478;55.682;37.462;2023-05-07T11:03:14;4.30;;;2.10;;
51384;SDS011;37478;55.682;37.462;2023-05-07T11:05:40;3.40;;;1.60;;
51384;SDS011;37478;55.682;37.462;2023-05-07T11:08:05;2.05;;;1.38;;
51384;SDS011;37478;55.682;37.462;2023-05-07T11:13:15;2.25;;;1.58;;
51384;SDS011;37478;55.682;37.462;2023-05-07T11:15:44;4.63;;;2.03;;
51384;SDS011;37478;55.682;37.462;2023-05-07T11:18:10;4.68;;;1.77;;
51384;SDS011;37478;55.682;37.462;2023-05-07T11:20:54;2.85;;;1.80;;
51384;SDS011;37478;55.682;37.462;2023-05-07T11:26:08;6.07;;;2.53;;
51384;SDS011;37478;55.682;37.462;2023-05-07T11:28:37;1.77;;;1.50;;
51384;SDS011;37478;55.682;37.462;2023-05-07T11:31:03;4.82;;;2.60;;
51384;SDS011;37478;55.682;37.462;2023-05-07T11:33:29;7.75;;;2.03;;
51384;SDS011;37478;55.682;37.462;2023-05-07T11:35:55;4.50;;;1.92;;
51384;SDS011;37478;55.682;37.462;2023-05-07T11:38:20;5.28;;;1.67;;
51384;SDS011;37478;55.682;37.462;2023-05-07T11:40:50;4.35;;;2.15;;
51384;SDS011;37478;55.682;37.462;2023-05-07T11:43:15;5.10;;;1.92;;
51384;SDS011;37478;55.682;37.462;2023-05-07T11:45:41;6.65;;;2.05;;
51384;SDS011;37478;55.682;37.462;2023-05-07T11:48:06;5.63;;;2.00;;
51384;SDS011;37478;55.682;37.462;2023-05-07T11:50:31;3.03;;;2.10;;
51384;SDS011;37478;55.682;37.462;2023-05-07T11:52:57;12.07;;;2.72;;
51384;SDS011;37478;55.682;37.462;2023-05-07T11:55:23;2.67;;;1.98;;
51384;SDS011;37478;55.682;37.462;2023-05-07T11:57:49;1.80;;;1.58;;
51384;SDS011;37478;55.682;37.462;2023-05-07T12:00:15;3.33;;;2.35;;
51384;SDS011;37478;55.682;37.462;2023-05-07T12:02:41;5.15;;;1.77;;
51384;SDS011;37478;55.682;37.462;2023-05-07T12:05:07;3.97;;;2.20;;
51384;SDS011;37478;55.682;37.462;2023-05-07T12:07:33;2.40;;;1.88;;
51384;SDS011;37478;55.682;37.462;2023-05-07T12:09:58;4.07;;;2.20;;
51384;SDS011;37478;55.682;37.462;2023-05-07T12:12:24;3.13;;;1.92;;
51384;SDS011;37478;55.682;37.462;2023-05-07T12:14:49;4.07;;;2.50;;
51384;SDS011;37478;55.682;37.462;2023-05-07T12:17:14;6.10;;;2.95;;
51384;SDS011;37478;55.682;37.462;2023-05-07T12:19:41;3.78;;;1.80;;
51384;SDS011;37478;55.682;37.462;2023-05-07T12:22:08;3.22;;;2.13;;
51384;SDS011;37478;55.682;37.462;2023-05-07T12:24:49;4.35;;;2.05;;
51384;SDS011;37478;55.682;37.462;2023-05-07T12:27:15;3.78;;;1.63;;
51384;SDS011;37478;55.682;37.462;2023-05-07T12:29:48;6.35;;;2.08;;
51384;SDS011;37478;55.682;37.462;2023-05-07T12:32:17;4.70;;;2.40;;
51384;SDS011;37478;55.682;37.462;2023-05-07T12:34:46;3.42;;;2.20;;
51384;SDS011;37478;55.682;37.462;2023-05-07T12:37:11;4.97;;;2.42;;
51384;SDS011;37478;55.682;37.462;2023-05-07T12:39:37;3.45;;;2.03;;
51384;SDS011;37478;55.682;37.462;2023-05-07T12:42:03;4.63;;;2.65;;
51384;SDS011;37478;55.682;37.462;2023-05-07T12:44:31;3.35;;;2.20;;
51384;SDS011;37478;55.682;37.462;2023-05-07T12:46:57;2.75;;;1.85;;
51384;SDS011;37478;55.682;37.462;2023-05-07T12:49:23;1.65;;;1.50;;
51384;SDS011;37478;55.682;37.462;2023-05-07T12:51:48;2.35;;;1.67;;
51384;SDS011;37478;55.682;37.462;2023-05-07T12:54:14;2.22;;;1.77;;
51384;SDS011;37478;55.682;37.462;2023-05-07T12:56:59;7.50;;;3.20;;
51384;SDS011;37478;55.682;37.462;2023-05-07T12:59:35;2.95;;;2.00;;
51384;SDS011;37478;55.682;37.462;2023-05-07T13:04:26;7.13;;;2.63;;
51384;SDS011;37478;55.682;37.462;2023-05-07T13:06:51;3.80;;;2.60;;
51384;SDS011;37478;55.682;37.462;2023-05-07T13:09:16;5.05;;;2.10;;
51384;SDS011;37478;55.682;37.462;2023-05-07T13:11:42;6.22;;;2.30;;
51384;SDS011;37478;55.682;37.462;2023-05-07T13:14:07;2.97;;;2.08;;
51384;SDS011;37478;55.682;37.462;2023-05-07T13:16:33;3.45;;;1.63;;
51384;SDS011;37478;55.682;37.462;2023-05-07T13:18:58;4.82;;;2.40;;
51384;SDS011;37478;55.682;37.462;2023-05-07T13:21:23;3.97;;;1.40;;
51384;SDS011;37478;55.682;37.462;2023-05-07T13:23:49;2.35;;;1.80;;
51384;SDS011;37478;55.682;37.462;2023-05-07T13:26:14;4.32;;;1.77;;
51384;SDS011;37478;55.682;37.462;2023-05-07T13:28:40;3.83;;;1.95;;
51384;SDS011;37478;55.682;37.462;2023-05-07T13:31:05;2.42;;;2.03;;
51384;SDS011;37478;55.682;37.462;2023-05-07T13:33:33;3.03;;;1.80;;
51384;SDS011;37478;55.682;37.462;2023-05-07T13:35:58;5.07;;;3.20;;
51384;SDS011;37478;55.682;37.462;2023-05-07T13:38:25;7.20;;;2.33;;
51384;SDS011;37478;55.682;37.462;2023-05-07T13:40:50;7.32;;;2.03;;
51384;SDS011;37478;55.682;37.462;2023-05-07T13:43:16;4.00;;;1.98;;
51384;SDS011;37478;55.682;37.462;2023-05-07T13:45:42;10.48;;;2.92;;
51384;SDS011;37478;55.682;37.462;2023-05-07T13:48:07;1.83;;;1.73;;
51384;SDS011;37478;55.682;37.462;2023-05-07T13:50:33;2.60;;;1.85;;
51384;SDS011;37478;55.682;37.462;2023-05-07T13:52:58;4.95;;;2.25;;
51384;SDS011;37478;55.682;37.462;2023-05-07T13:55:24;2.50;;;2.17;;
51384;SDS011;37478;55.682;37.462;2023-05-07T13:57:56;4.47;;;2.85;;
51384;SDS011;37478;55.682;37.462;2023-05-07T14:00:22;8.15;;;2.95;;
51384;SDS011;37478;55.682;37.462;2023-05-07T14:02:47;4.60;;;2.28;;
51384;SDS011;37478;55.682;37.462;2023-05-07T14:05:12;6.45;;;3.10;;
51384;SDS011;37478;55.682;37.462;2023-05-07T14:07:38;3.40;;;1.88;;
51384;SDS011;37478;55.682;37.462;2023-05-07T14:10:03;6.63;;;3.20;;
51384;SDS011;37478;55.682;37.462;2023-05-07T14:12:29;4.28;;;2.30;;
51384;SDS011;37478;55.682;37.462;2023-05-07T14:14:54;5.50;;;2.72;;
51384;SDS011;37478;55.682;37.462;2023-05-07T14:17:20;5.32;;;2.20;;
51384;SDS011;37478;55.682;37.462;2023-05-07T14:19:45;3.85;;;2.22;;
51384;SDS011;37478;55.682;37.462;2023-05-07T14:22:13;2.60;;;2.10;;
51384;SDS011;37478;55.682;37.462;2023-05-07T14:24:38;9.80;;;2.00;;
51384;SDS011;37478;55.682;37.462;2023-05-07T14:27:04;3.10;;;1.98;;
51384;SDS011;37478;55.682;37.462;2023-05-07T14:29:30;3.15;;;1.60;;
51384;SDS011;37478;55.682;37.462;2023-05-07T14:31:56;8.18;;;5.00;;
51384;SDS011;37478;55.682;37.462;2023-05-07T14:34:21;5.15;;;3.03;;
51384;SDS011;37478;55.682;37.462;2023-05-07T14:36:46;9.57;;;2.97;;
51384;SDS011;37478;55.682;37.462;2023-05-07T14:39:11;3.22;;;2.05;;
51384;SDS011;37478;55.682;37.462;2023-05-07T14:41:37;6.72;;;3.63;;
51384;SDS011;37478;55.682;37.462;2023-05-07T14:44:02;4.53;;;3.58;;